sensor_id;sensor_type;location;lat;lon;timestamp;pressure;altitude;pressure_sealevel;temperature;humidity
82245;BME280;71849;50.096;14.458;2023-09-30T00:00:42;99876.06;;;22.93;55.82
82245;BME280;71849;50.096;14.458;2023-09-30T00:03:07;99886.56;;;23.14;55.55
82245;BME280;71849;50.096;14.458;2023-09-30T00:05:33;99893.56;;;22.93;56.77
82245;BME280;71849;50.096;14.458;2023-09-30T00:07:58;99900.69;;;22.99;56.76
82245;BME280;71849;50.096;14.458;2023-09-30T00:10:24;99891.03;;;22.78;57.21
82245;BME280;71849;50.096;14.458;2023-09-30T00:12:49;99890.41;;;22.81;57.20
82245;BME280;71849;50.096;14.458;2023-09-30T00:15:14;99893.13;;;22.67;57.45
82245;BME280;71849;50.096;14.458;2023-09-30T00:17:40;99890.16;;;22.40;57.60
82245;BME280;71849;50.096;14.458;2023-09-30T00:20:06;99894.91;;;22.58;57.17
82245;BME280;71849;50.096;14.458;2023-09-30T00:22:32;99897.59;;;22.63;57.05
82245;BME280;71849;50.096;14.458;2023-09-30T00:24:58;99890.09;;;22.64;56.20
82245;BME280;71849;50.096;14.458;2023-09-30T00:27:23;99890.63;;;22.23;57.08
82245;BME280;71849;50.096;14.458;2023-09-30T00:29:49;99889.03;;;22.60;55.75
82245;BME280;71849;50.096;14.458;2023-09-30T00:32:14;99887.97;;;22.79;55.23
82245;BME280;71849;50.096;14.458;2023-09-30T00:34:39;99899.47;;;22.25;56.52
82245;BME280;71849;50.096;14.458;2023-09-30T00:37:05;99895.41;;;22.60;55.33
82245;BME280;71849;50.096;14.458;2023-09-30T00:39:32;99902.66;;;22.56;54.78
82245;BME280;71849;50.096;14.458;2023-09-30T00:41:58;99894.34;;;22.56;54.82
82245;BME280;71849;50.096;14.458;2023-09-30T00:44:26;99900.06;;;22.46;54.99
82245;BME280;71849;50.096;14.458;2023-09-30T00:46:56;99903.09;;;22.26;55.18
82245;BME280;71849;50.096;14.458;2023-09-30T00:49:25;99906.63;;;22.50;54.27
82245;BME280;71849;50.096;14.458;2023-09-30T00:51:51;99923.16;;;22.18;54.72
82245;BME280;71849;50.096;14.458;2023-09-30T00:54:17;99905.22;;;22.34;53.91
82245;BME280;71849;50.096;14.458;2023-09-30T00:56:45;99912.34;;;22.59;53.46
82245;BME280;71849;50.096;14.458;2023-09-30T00:59:12;99902.03;;;22.64;53.38
82245;BME280;71849;50.096;14.458;2023-09-30T01:01:38;99904.66;;;22.32;53.67
82245;BME280;71849;50.096;14.458;2023-09-30T01:04:03;99914.13;;;22.31;53.96
82245;BME280;71849;50.096;14.458;2023-09-30T01:06:29;99916.53;;;21.90;54.76
82245;BME280;71849;50.096;14.458;2023-09-30T01:08:55;99918.97;;;22.20;54.10
82245;BME280;71849;50.096;14.458;2023-09-30T01:11:21;99916.91;;;22.07;54.25
82245;BME280;71849;50.096;14.458;2023-09-30T01:13:46;99916.84;;;22.12;54.08
82245;BME280;71849;50.096;14.458;2023-09-30T01:16:13;99916.78;;;21.94;54.54
82245;BME280;71849;50.096;14.458;2023-09-30T01:18:41;99929.44;;;21.71;54.57
82245;BME280;71849;50.096;14.458;2023-09-30T01:21:08;99931.78;;;21.88;54.63
82245;BME280;71849;50.096;14.458;2023-09-30T01:23:35;99926.34;;;22.06;53.87
82245;BME280;71849;50.096;14.458;2023-09-30T01:26:02;99926.00;;;21.84;54.50
82245;BME280;71849;50.096;14.458;2023-09-30T01:28:28;99924.69;;;21.76;54.64
82245;BME280;71849;50.096;14.458;2023-09-30T01:30:54;99934.13;;;21.75;54.70
82245;BME280;71849;50.096;14.458;2023-09-30T01:33:20;99935.50;;;21.78;54.52
82245;BME280;71849;50.096;14.458;2023-09-30T01:35:45;99929.41;;;21.76;54.65
82245;BME280;71849;50.096;14.458;2023-09-30T01:38:11;99933.78;;;21.82;54.44
82245;BME280;71849;50.096;14.458;2023-09-30T01:40:36;99939.13;;;21.73;54.45
82245;BME280;71849;50.096;14.458;2023-09-30T01:43:03;99935.31;;;21.69;54.56
82245;BME280;71849;50.096;14.458;2023-09-30T01:45:28;99930.88;;;21.68;54.44
82245;BME280;71849;50.096;14.458;2023-09-30T01:47:54;99933.59;;;21.11;56.05
82245;BME280;71849;50.096;14.458;2023-09-30T01:50:19;99939.13;;;21.45;55.21
82245;BME280;71849;50.096;14.458;2023-09-30T01:52:45;99939.25;;;21.30;55.63
82245;BME280;71849;50.096;14.458;2023-09-30T01:55:10;99935.97;;;21.28;55.55
82245;BME280;71849;50.096;14.458;2023-09-30T01:57:36;99939.53;;;21.28;55.35
82245;BME280;71849;50.096;14.458;2023-09-30T02:00:02;99946.09;;;21.37;55.21
82245;BME280;71849;50.096;14.458;2023-09-30T02:02:28;99943.00;;;21.10;55.90
82245;BME280;71849;50.096;14.458;2023-09-30T02:04:53;99937.47;;;21.10;55.78
82245;BME280;71849;50.096;14.458;2023-09-30T02:07:18;99935.59;;;21.34;55.44
82245;BME280;71849;50.096;14.458;2023-09-30T02:09:44;99940.25;;;21.05;56.23
82245;BME280;71849;50.096;14.458;2023-09-30T02:12:10;99950.75;;;21.08;56.23
82245;BME280;71849;50.096;14.458;2023-09-30T02:14:35;99954.09;;;21.05;55.87
82245;BME280;71849;50.096;14.458;2023-09-30T02:17:01;99949.09;;;20.63;57.36
82245;BME280;71849;50.096;14.458;2023-09-30T02:19:26;99951.84;;;21.07;55.94
82245;BME280;71849;50.096;14.458;2023-09-30T02:21:52;99950.88;;;21.32;55.34
82245;BME280;71849;50.096;14.458;2023-09-30T02:24:18;99957.53;;;20.87;56.63
82245;BME280;71849;50.096;14.458;2023-09-30T02:26:43;99968.34;;;20.83;56.52
82245;BME280;71849;50.096;14.458;2023-09-30T02:29:09;99980.97;;;20.99;56.29
82245;BME280;71849;50.096;14.458;2023-09-30T02:31:34;99974.03;;;21.02;55.76
82245;BME280;71849;50.096;14.458;2023-09-30T02:34:00;99969.94;;;20.94;56.00
82245;BME280;71849;50.096;14.458;2023-09-30T02:36:29;99979.88;;;21.00;55.82
82245;BME280;71849;50.096;14.458;2023-09-30T02:38:54;99967.00;;;20.76;56.79
82245;BME280;71849;50.096;14.458;2023-09-30T02:41:19;99983.47;;;20.42;57.85
82245;BME280;71849;50.096;14.458;2023-09-30T02:43:45;99981.16;;;20.64;57.11
82245;BME280;71849;50.096;14.458;2023-09-30T02:46:11;99990.44;;;20.29;58.50
82245;BME280;71849;50.096;14.458;2023-09-30T02:48:37;99983.78;;;20.20;58.58
82245;BME280;71849;50.096;14.458;2023-09-30T02:51:03;99989.53;;;20.44;57.78
82245;BME280;71849;50.096;14.458;2023-09-30T02:53:28;99987.25;;;20.61;57.64
82245;BME280;71849;50.096;14.458;2023-09-30T02:55:53;99996.22;;;20.38;57.80
82245;BME280;71849;50.096;14.458;2023-09-30T02:58:23;99987.31;;;20.51;57.58
82245;BME280;71849;50.096;14.458;2023-09-30T03:00:49;99985.28;;;20.71;56.92
82245;BME280;71849;50.096;14.458;2023-09-30T03:03:15;99997.25;;;20.52;57.43
82245;BME280;71849;50.096;14.458;2023-09-30T03:05:40;100000.66;;;20.29;58.24
82245;BME280;71849;50.096;14.458;2023-09-30T03:08:06;100005.50;;;20.67;56.82
82245;BME280;71849;50.096;14.458;2023-09-30T03:10:32;100008.06;;;20.43;57.77
82245;BME280;71849;50.096;14.458;2023-09-30T03:12:57;100002.22;;;20.60;57.15
82245;BME280;71849;50.096;14.458;2023-09-30T03:15:28;100009.94;;;20.63;57.12
82245;BME280;71849;50.096;14.458;2023-09-30T03:17:56;100017.72;;;20.51;57.72
82245;BME280;71849;50.096;14.458;2023-09-30T03:20:21;100009.78;;;20.24;57.98
82245;BME280;71849;50.096;14.458;2023-09-30T03:22:47;100018.06;;;20.19;58.30
82245;BME280;71849;50.096;14.458;2023-09-30T03:25:15;100026.63;;;20.12;59.01
82245;BME280;71849;50.096;14.458;2023-09-30T03:27:43;100033.56;;;20.30;58.16
82245;BME280;71849;50.096;14.458;2023-09-30T03:30:09;100031.06;;;20.29;58.23
82245;BME280;71849;50.096;14.458;2023-09-30T03:32:35;100028.84;;;20.21;58.55
82245;BME280;71849;50.096;14.458;2023-09-30T03:35:07;100031.91;;;20.14;58.73
82245;BME280;71849;50.096;14.458;2023-09-30T03:37:33;100031.34;;;20.07;58.96
82245;BME280;71849;50.096;14.458;2023-09-30T03:40:00;100037.97;;;20.21;58.55
82245;BME280;71849;50.096;14.458;2023-09-30T03:42:26;100037.72;;;20.02;59.04
82245;BME280;71849;50.096;14.458;2023-09-30T03:44:51;100043.69;;;20.55;57.52
82245;BME280;71849;50.096;14.458;2023-09-30T03:47:18;100040.38;;;20.63;57.18
82245;BME280;71849;50.096;14.458;2023-09-30T03:49:43;100050.66;;;20.47;57.53
82245;BME280;71849;50.096;14.458;2023-09-30T03:52:09;100061.44;;;20.18;58.56
82245;BME280;71849;50.096;14.458;2023-09-30T03:54:36;100066.47;;;19.96;59.41
82245;BME280;71849;50.096;14.458;2023-09-30T03:57:03;100066.75;;;20.00;59.13
82245;BME280;71849;50.096;14.458;2023-09-30T03:59:29;100065.34;;;19.67;60.17
82245;BME280;71849;50.096;14.458;2023-09-30T04:01:54;100071.44;;;19.94;59.04
82245;BME280;71849;50.096;14.458;2023-09-30T04:04:20;100073.13;;;19.90;59.59
82245;BME280;71849;50.096;14.458;2023-09-30T04:06:48;100072.28;;;19.90;59.38
82245;BME280;71849;50.096;14.458;2023-09-30T04:09:13;100089.97;;;19.84;59.74
82245;BME280;71849;50.096;14.458;2023-09-30T04:11:39;100089.13;;;19.78;60.11
82245;BME280;71849;50.096;14.458;2023-09-30T04:14:06;100103.78;;;19.79;59.92
82245;BME280;71849;50.096;14.458;2023-09-30T04:16:33;100101.56;;;19.66;60.41
82245;BME280;71849;50.096;14.458;2023-09-30T04:18:58;100098.22;;;19.89;59.78
82245;BME280;71849;50.096;14.458;2023-09-30T04:21:24;100102.34;;;19.46;61.01
82245;BME280;71849;50.096;14.458;2023-09-30T04:23:49;100111.22;;;19.88;59.98
82245;BME280;71849;50.096;14.458;2023-09-30T04:26:15;100123.25;;;19.37;61.54
82245;BME280;71849;50.096;14.458;2023-09-30T04:28:41;100134.00;;;19.28;61.80
82245;BME280;71849;50.096;14.458;2023-09-30T04:31:06;100122.41;;;19.31;61.90
82245;BME280;71849;50.096;14.458;2023-09-30T04:33:33;100132.09;;;19.34;62.01
82245;BME280;71849;50.096;14.458;2023-09-30T04:36:01;100135.09;;;19.22;62.52
82245;BME280;71849;50.096;14.458;2023-09-30T04:38:26;100146.44;;;19.31;62.43
82245;BME280;71849;50.096;14.458;2023-09-30T04:40:52;100147.16;;;19.01;63.71
82245;BME280;71849;50.096;14.458;2023-09-30T04:43:19;100149.59;;;19.54;61.80
82245;BME280;71849;50.096;14.458;2023-09-30T04:45:46;100147.38;;;19.56;61.93
82245;BME280;71849;50.096;14.458;2023-09-30T04:48:12;100157.91;;;19.75;62.42
82245;BME280;71849;50.096;14.458;2023-09-30T04:50:39;100162.16;;;19.25;64.27
82245;BME280;71849;50.096;14.458;2023-09-30T04:53:08;100161.00;;;19.16;65.07
82245;BME280;71849;50.096;14.458;2023-09-30T04:55:34;100161.69;;;18.81;66.72
82245;BME280;71849;50.096;14.458;2023-09-30T04:57:59;100159.94;;;19.27;65.46
82245;BME280;71849;50.096;14.458;2023-09-30T05:00:28;100172.34;;;19.20;66.14
82245;BME280;71849;50.096;14.458;2023-09-30T05:02:55;100174.13;;;18.94;67.35
82245;BME280;71849;50.096;14.458;2023-09-30T05:05:21;100178.81;;;18.88;67.69
82245;BME280;71849;50.096;14.458;2023-09-30T05:07:47;100188.94;;;18.41;67.20
82245;BME280;71849;50.096;14.458;2023-09-30T05:10:15;100196.28;;;18.30;67.70
82245;BME280;71849;50.096;14.458;2023-09-30T05:12:43;100212.41;;;18.43;67.12
82245;BME280;71849;50.096;14.458;2023-09-30T05:15:11;100212.63;;;18.37;67.56
82245;BME280;71849;50.096;14.458;2023-09-30T05:17:45;100225.47;;;18.53;66.95
82245;BME280;71849;50.096;14.458;2023-09-30T05:20:11;100230.28;;;18.73;66.27
82245;BME280;71849;50.096;14.458;2023-09-30T05:22:38;100231.72;;;18.80;66.11
82245;BME280;71849;50.096;14.458;2023-09-30T05:25:08;100227.28;;;18.74;65.89
82245;BME280;71849;50.096;14.458;2023-09-30T05:27:34;100226.97;;;18.39;67.37
82245;BME280;71849;50.096;14.458;2023-09-30T05:29:59;100216.69;;;17.71;68.79
82245;BME280;71849;50.096;14.458;2023-09-30T05:32:25;100249.25;;;17.57;69.69
82245;BME280;71849;50.096;14.458;2023-09-30T05:34:52;100262.41;;;17.98;69.05
82245;BME280;71849;50.096;14.458;2023-09-30T05:37:19;100248.41;;;17.78;69.83
82245;BME280;71849;50.096;14.458;2023-09-30T05:39:49;100244.09;;;17.61;69.75
82245;BME280;71849;50.096;14.458;2023-09-30T05:42:16;100246.59;;;17.62;69.81
82245;BME280;71849;50.096;14.458;2023-09-30T05:44:43;100269.16;;;17.86;69.71
82245;BME280;71849;50.096;14.458;2023-09-30T05:47:09;100264.09;;;17.34;70.77
82245;BME280;71849;50.096;14.458;2023-09-30T05:49:35;100270.25;;;17.20;72.01
82245;BME280;71849;50.096;14.458;2023-09-30T05:52:02;100268.28;;;17.59;69.66
82245;BME280;71849;50.096;14.458;2023-09-30T05:54:28;100264.41;;;17.16;71.85
82245;BME280;71849;50.096;14.458;2023-09-30T05:56:54;100265.63;;;17.25;71.52
82245;BME280;71849;50.096;14.458;2023-09-30T05:59:20;100275.88;;;17.95;68.92
82245;BME280;71849;50.096;14.458;2023-09-30T06:01:45;100280.19;;;18.13;68.58
82245;BME280;71849;50.096;14.458;2023-09-30T06:04:11;100283.31;;;17.73;69.85
82245;BME280;71849;50.096;14.458;2023-09-30T06:06:37;100286.44;;;17.38;70.64
82245;BME280;71849;50.096;14.458;2023-09-30T06:09:04;100289.53;;;17.63;69.64
82245;BME280;71849;50.096;14.458;2023-09-30T06:11:32;100291.75;;;17.88;67.86
82245;BME280;71849;50.096;14.458;2023-09-30T06:13:58;100291.91;;;18.03;66.49
82245;BME280;71849;50.096;14.458;2023-09-30T06:16:27;100301.50;;;17.14;65.77
82245;BME280;71849;50.096;14.458;2023-09-30T06:18:55;100322.69;;;17.13;64.97
82245;BME280;71849;50.096;14.458;2023-09-30T06:21:21;100306.00;;;17.58;63.42
82245;BME280;71849;50.096;14.458;2023-09-30T06:23:50;100299.22;;;17.27;64.03
82245;BME280;71849;50.096;14.458;2023-09-30T06:26:17;100313.44;;;17.41;64.13
82245;BME280;71849;50.096;14.458;2023-09-30T06:28:43;100312.25;;;17.75;63.02
82245;BME280;71849;50.096;14.458;2023-09-30T06:31:09;100307.91;;;17.58;63.75
82245;BME280;71849;50.096;14.458;2023-09-30T06:33:35;100313.97;;;17.38;63.44
82245;BME280;71849;50.096;14.458;2023-09-30T06:36:02;100309.91;;;17.84;62.33
82245;BME280;71849;50.096;14.458;2023-09-30T06:38:28;100315.59;;;17.99;61.72
82245;BME280;71849;50.096;14.458;2023-09-30T06:40:53;100308.00;;;18.11;60.99
82245;BME280;71849;50.096;14.458;2023-09-30T06:43:19;100313.38;;;17.74;60.20
82245;BME280;71849;50.096;14.458;2023-09-30T06:45:45;100317.03;;;18.07;59.06
82245;BME280;71849;50.096;14.458;2023-09-30T06:48:14;100310.16;;;18.09;58.42
82245;BME280;71849;50.096;14.458;2023-09-30T06:50:44;100325.09;;;17.48;60.24
82245;BME280;71849;50.096;14.458;2023-09-30T06:53:10;100330.72;;;17.75;60.38
82245;BME280;71849;50.096;14.458;2023-09-30T06:55:38;100330.81;;;18.33;58.03
82245;BME280;71849;50.096;14.458;2023-09-30T06:58:08;100331.19;;;18.15;59.27
82245;BME280;71849;50.096;14.458;2023-09-30T07:00:34;100350.22;;;17.95;58.83
82245;BME280;71849;50.096;14.458;2023-09-30T07:03:00;100356.63;;;17.57;59.29
82245;BME280;71849;50.096;14.458;2023-09-30T07:05:29;100365.34;;;17.71;58.80
82245;BME280;71849;50.096;14.458;2023-09-30T07:07:57;100352.00;;;18.06;58.36
82245;BME280;71849;50.096;14.458;2023-09-30T07:10:23;100364.72;;;18.07;58.27
82245;BME280;71849;50.096;14.458;2023-09-30T07:12:48;100371.72;;;17.55;59.01
82245;BME280;71849;50.096;14.458;2023-09-30T07:15:13;100372.94;;;17.64;58.63
82245;BME280;71849;50.096;14.458;2023-09-30T07:17:39;100378.75;;;17.84;58.72
82245;BME280;71849;50.096;14.458;2023-09-30T07:20:06;100387.25;;;18.04;57.84
82245;BME280;71849;50.096;14.458;2023-09-30T07:22:35;100397.09;;;18.43;56.46
82245;BME280;71849;50.096;14.458;2023-09-30T07:25:00;100386.94;;;17.79;55.79
82245;BME280;71849;50.096;14.458;2023-09-30T07:27:29;100401.91;;;17.49;56.60
82245;BME280;71849;50.096;14.458;2023-09-30T07:29:54;100410.06;;;17.78;55.92
82245;BME280;71849;50.096;14.458;2023-09-30T07:32:20;100411.44;;;17.59;55.79
82245;BME280;71849;50.096;14.458;2023-09-30T07:34:48;100416.59;;;17.93;55.19
82245;BME280;71849;50.096;14.458;2023-09-30T07:37:14;100416.78;;;18.52;53.13
82245;BME280;71849;50.096;14.458;2023-09-30T07:39:39;100423.31;;;17.81;55.11
82245;BME280;71849;50.096;14.458;2023-09-30T07:42:04;100423.72;;;17.89;54.58
82245;BME280;71849;50.096;14.458;2023-09-30T07:44:30;100415.63;;;17.83;54.51
82245;BME280;71849;50.096;14.458;2023-09-30T07:46:57;100439.44;;;17.39;55.64
82245;BME280;71849;50.096;14.458;2023-09-30T07:49:23;100441.53;;;17.65;54.93
82245;BME280;71849;50.096;14.458;2023-09-30T07:51:49;100438.84;;;18.09;53.69
82245;BME280;71849;50.096;14.458;2023-09-30T07:54:14;100440.09;;;18.01;53.62
82245;BME280;71849;50.096;14.458;2023-09-30T07:56:40;100431.22;;;17.56;54.70
82245;BME280;71849;50.096;14.458;2023-09-30T07:59:12;100447.94;;;17.71;54.74
82245;BME280;71849;50.096;14.458;2023-09-30T08:01:38;100444.97;;;17.94;54.16
82245;BME280;71849;50.096;14.458;2023-09-30T08:04:04;100439.38;;;17.67;54.80
82245;BME280;71849;50.096;14.458;2023-09-30T08:06:29;100444.06;;;17.17;56.15
82245;BME280;71849;50.096;14.458;2023-09-30T08:08:55;100438.50;;;17.83;54.29
82245;BME280;71849;50.096;14.458;2023-09-30T08:11:20;100442.19;;;17.39;55.90
82245;BME280;71849;50.096;14.458;2023-09-30T08:13:46;100439.44;;;17.39;56.06
82245;BME280;71849;50.096;14.458;2023-09-30T08:16:12;100442.56;;;17.59;55.75
82245;BME280;71849;50.096;14.458;2023-09-30T08:18:38;100441.69;;;17.97;54.28
82245;BME280;71849;50.096;14.458;2023-09-30T08:21:03;100431.94;;;17.68;55.50
82245;BME280;71849;50.096;14.458;2023-09-30T08:23:31;100425.59;;;17.67;54.94
82245;BME280;71849;50.096;14.458;2023-09-30T08:26:02;100421.38;;;17.60;55.30
82245;BME280;71849;50.096;14.458;2023-09-30T08:28:30;100413.34;;;17.58;55.43
82245;BME280;71849;50.096;14.458;2023-09-30T08:31:02;100420.19;;;17.94;54.29
82245;BME280;71849;50.096;14.458;2023-09-30T08:33:27;100418.44;;;17.88;54.80
82245;BME280;71849;50.096;14.458;2023-09-30T08:35:56;100444.84;;;17.84;54.36
82245;BME280;71849;50.096;14.458;2023-09-30T08:38:26;100435.16;;;18.25;53.39
82245;BME280;71849;50.096;14.458;2023-09-30T08:40:52;100447.59;;;18.27;53.08
82245;BME280;71849;50.096;14.458;2023-09-30T08:43:22;100441.56;;;18.30;52.55
82245;BME280;71849;50.096;14.458;2023-09-30T08:45:53;100455.09;;;18.75;51.93
82245;BME280;71849;50.096;14.458;2023-09-30T08:48:20;100451.13;;;18.23;52.10
82245;BME280;71849;50.096;14.458;2023-09-30T08:50:48;100458.50;;;18.61;50.79
82245;BME280;71849;50.096;14.458;2023-09-30T08:53:16;100457.06;;;18.36;53.07
82245;BME280;71849;50.096;14.458;2023-09-30T08:55:43;100464.25;;;18.81;51.95
82245;BME280;71849;50.096;14.458;2023-09-30T08:58:14;100460.88;;;18.52;52.54
82245;BME280;71849;50.096;14.458;2023-09-30T09:00:40;100464.06;;;18.22;52.47
82245;BME280;71849;50.096;14.458;2023-09-30T09:03:08;100462.72;;;18.46;52.17
82245;BME280;71849;50.096;14.458;2023-09-30T09:05:34;100453.28;;;17.61;53.05
82245;BME280;71849;50.096;14.458;2023-09-30T09:08:01;100458.69;;;18.32;51.31
82245;BME280;71849;50.096;14.458;2023-09-30T09:10:26;100457.63;;;18.12;50.93
82245;BME280;71849;50.096;14.458;2023-09-30T09:12:58;100474.00;;;18.01;51.87
82245;BME280;71849;50.096;14.458;2023-09-30T09:15:28;100466.22;;;17.60;52.79
82245;BME280;71849;50.096;14.458;2023-09-30T09:17:55;100468.50;;;18.23;51.37
82245;BME280;71849;50.096;14.458;2023-09-30T09:20:22;100464.41;;;18.26;51.25
82245;BME280;71849;50.096;14.458;2023-09-30T09:22:51;100464.34;;;18.21;50.66
82245;BME280;71849;50.096;14.458;2023-09-30T09:25:19;100472.91;;;18.94;49.38
82245;BME280;71849;50.096;14.458;2023-09-30T09:27:44;100468.75;;;18.43;50.29
82245;BME280;71849;50.096;14.458;2023-09-30T09:30:19;100474.06;;;18.07;50.82
82245;BME280;71849;50.096;14.458;2023-09-30T09:33:04;100476.88;;;18.77;49.38
82245;BME280;71849;50.096;14.458;2023-09-30T09:35:32;100471.94;;;18.79;49.36
82245;BME280;71849;50.096;14.458;2023-09-30T09:37:59;100473.44;;;18.43;49.98
82245;BME280;71849;50.096;14.458;2023-09-30T09:40:29;100469.16;;;18.52;50.04
82245;BME280;71849;50.096;14.458;2023-09-30T09:43:01;100467.78;;;18.76;49.03
82245;BME280;71849;50.096;14.458;2023-09-30T09:45:30;100466.66;;;18.72;49.91
82245;BME280;71849;50.096;14.458;2023-09-30T09:47:59;100478.75;;;18.71;49.59
82245;BME280;71849;50.096;14.458;2023-09-30T09:50:25;100484.38;;;19.08;48.52
82245;BME280;71849;50.096;14.458;2023-09-30T09:52:54;100480.06;;;19.17;48.61
82245;BME280;71849;50.096;14.458;2023-09-30T09:55:25;100472.81;;;19.75;46.54
82245;BME280;71849;50.096;14.458;2023-09-30T09:57:52;100480.38;;;19.52;47.50
82245;BME280;71849;50.096;14.458;2023-09-30T10:00:25;100480.56;;;19.41;48.11
82245;BME280;71849;50.096;14.458;2023-09-30T10:02:51;100471.56;;;19.24;48.12
82245;BME280;71849;50.096;14.458;2023-09-30T10:05:19;100478.19;;;19.28;48.02
82245;BME280;71849;50.096;14.458;2023-09-30T10:07:54;100477.88;;;18.92;48.07
82245;BME280;71849;50.096;14.458;2023-09-30T10:10:22;100466.31;;;18.95;47.40
82245;BME280;71849;50.096;14.458;2023-09-30T10:12:48;100466.94;;;19.66;45.29
82245;BME280;71849;50.096;14.458;2023-09-30T10:18:11;100465.72;;;19.20;46.97
82245;BME280;71849;50.096;14.458;2023-09-30T10:20:38;100465.50;;;19.58;45.78
82245;BME280;71849;50.096;14.458;2023-09-30T10:23:28;100467.16;;;19.54;45.73
82245;BME280;71849;50.096;14.458;2023-09-30T10:28:43;100478.34;;;19.80;45.44
82245;BME280;71849;50.096;14.458;2023-09-30T10:36:35;100467.84;;;19.40;45.33
82245;BME280;71849;50.096;14.458;2023-09-30T10:39:03;100478.44;;;19.53;45.28
82245;BME280;71849;50.096;14.458;2023-09-30T10:46:58;100469.19;;;19.69;44.70
82245;BME280;71849;50.096;14.458;2023-09-30T10:51:50;100461.97;;;19.68;44.05
82245;BME280;71849;50.096;14.458;2023-09-30T10:54:21;100461.00;;;19.84;43.52
82245;BME280;71849;50.096;14.458;2023-09-30T10:56:48;100452.63;;;19.74;42.95
82245;BME280;71849;50.096;14.458;2023-09-30T10:59:23;100455.38;;;19.69;43.60
82245;BME280;71849;50.096;14.458;2023-09-30T11:01:50;100464.59;;;19.48;44.62
82245;BME280;71849;50.096;14.458;2023-09-30T11:04:15;100457.09;;;19.85;43.74
82245;BME280;71849;50.096;14.458;2023-09-30T11:06:42;100464.63;;;20.47;42.90
82245;BME280;71849;50.096;14.458;2023-09-30T11:09:08;100457.44;;;20.46;42.01
82245;BME280;71849;50.096;14.458;2023-09-30T11:11:44;100468.56;;;20.04;42.58
82245;BME280;71849;50.096;14.458;2023-09-30T11:16:50;100475.03;;;19.78;42.90
82245;BME280;71849;50.096;14.458;2023-09-30T11:19:16;100473.22;;;19.98;42.36
82245;BME280;71849;50.096;14.458;2023-09-30T11:21:42;100465.28;;;20.84;40.73
82245;BME280;71849;50.096;14.458;2023-09-30T11:24:11;100461.88;;;20.47;41.61
82245;BME280;71849;50.096;14.458;2023-09-30T11:26:37;100462.00;;;20.15;41.54
82245;BME280;71849;50.096;14.458;2023-09-30T11:29:07;100465.81;;;20.66;40.83
82245;BME280;71849;50.096;14.458;2023-09-30T11:31:33;100468.38;;;21.03;39.58
82245;BME280;71849;50.096;14.458;2023-09-30T11:34:00;100462.81;;;20.93;39.44
82245;BME280;71849;50.096;14.458;2023-09-30T11:36:29;100468.19;;;20.32;39.67
82245;BME280;71849;50.096;14.458;2023-09-30T11:38:55;100461.31;;;20.50;39.82
82245;BME280;71849;50.096;14.458;2023-09-30T11:41:20;100453.50;;;20.32;39.90
82245;BME280;71849;50.096;14.458;2023-09-30T11:44:06;100446.47;;;20.81;39.72
82245;BME280;71849;50.096;14.458;2023-09-30T11:47:07;100450.22;;;20.35;40.42
82245;BME280;71849;50.096;14.458;2023-09-30T11:49:35;100433.47;;;20.92;40.06
82245;BME280;71849;50.096;14.458;2023-09-30T11:52:03;100436.59;;;21.31;38.30
82245;BME280;71849;50.096;14.458;2023-09-30T11:54:33;100431.03;;;21.46;37.80
82245;BME280;71849;50.096;14.458;2023-09-30T11:57:00;100432.38;;;20.88;39.34
82245;BME280;71849;50.096;14.458;2023-09-30T11:59:27;100435.88;;;20.48;39.98
82245;BME280;71849;50.096;14.458;2023-09-30T12:01:52;100441.13;;;19.92;41.03
82245;BME280;71849;50.096;14.458;2023-09-30T12:04:18;100437.28;;;19.98;40.34
82245;BME280;71849;50.096;14.458;2023-09-30T12:06:49;100437.31;;;20.60;39.14
82245;BME280;71849;50.096;14.458;2023-09-30T12:09:16;100429.88;;;20.81;39.02
82245;BME280;71849;50.096;14.458;2023-09-30T12:11:42;100427.97;;;21.37;38.31
82245;BME280;71849;50.096;14.458;2023-09-30T12:14:11;100420.19;;;21.04;38.78
82245;BME280;71849;50.096;14.458;2023-09-30T12:16:37;100445.81;;;20.49;39.66
82245;BME280;71849;50.096;14.458;2023-09-30T12:19:02;100434.78;;;20.54;39.62
82245;BME280;71849;50.096;14.458;2023-09-30T12:21:28;100436.91;;;20.27;40.06
82245;BME280;71849;50.096;14.458;2023-09-30T12:23:54;100428.44;;;20.58;39.43
82245;BME280;71849;50.096;14.458;2023-09-30T12:26:19;100423.00;;;21.09;38.47
82245;BME280;71849;50.096;14.458;2023-09-30T12:28:45;100420.38;;;20.42;40.13
82245;BME280;71849;50.096;14.458;2023-09-30T12:31:11;100417.66;;;20.57;39.20
82245;BME280;71849;50.096;14.458;2023-09-30T12:33:36;100424.06;;;20.88;38.31
82245;BME280;71849;50.096;14.458;2023-09-30T12:36:02;100415.19;;;20.81;38.52
82245;BME280;71849;50.096;14.458;2023-09-30T12:38:27;100413.28;;;20.81;37.97
82245;BME280;71849;50.096;14.458;2023-09-30T12:40:55;100406.28;;;20.53;38.16
82245;BME280;71849;50.096;14.458;2023-09-30T12:43:21;100404.97;;;20.76;38.12
82245;BME280;71849;50.096;14.458;2023-09-30T12:45:46;100417.59;;;20.42;38.69
82245;BME280;71849;50.096;14.458;2023-09-30T12:48:13;100404.38;;;20.54;38.16
82245;BME280;71849;50.096;14.458;2023-09-30T12:50:43;100413.56;;;20.85;37.83
82245;BME280;71849;50.096;14.458;2023-09-30T12:53:08;100408.34;;;21.18;36.51
82245;BME280;71849;50.096;14.458;2023-09-30T12:55:34;100405.56;;;21.34;36.20
82245;BME280;71849;50.096;14.458;2023-09-30T12:57:59;100413.84;;;20.88;36.79
82245;BME280;71849;50.096;14.458;2023-09-30T13:00:25;100403.03;;;21.07;36.13
82245;BME280;71849;50.096;14.458;2023-09-30T13:02:52;100402.22;;;21.06;36.60